Time;durP1;ratioP1;P1;durP2;ratioP2;P2;SDS_P1;SDS_P2;PMS_P1;PMS_P2;Temp;Humidity;BMP_temperature;BMP_pressure;BME280_temperature;BME280_humidity;BME280_pressure;Samples;Min_cycle;Max_cycle;Signal;HPM_P1;HPM_P2
2022/12/30 00:02:24;;;;;;;3.67;1.92;;;;;;;-3.78;95.42;100087.34;10500739;28;20032;-77
2022/12/30 00:07:27;;;;;;;3.15;2.20;;;;;;;-3.78;95.56;100090.00;10500822;28;20048;-78
2022/12/30 00:34:00;;;;;;;3.38;1.98;;;;;;;-3.73;95.60;100058.06;10485524;28;20033;-79
2022/12/30 00:39:03;;;;;;;4.22;1.98;;;;;;;-3.75;96.30;100055.56;10526325;28;20040;-80
2022/12/30 00:44:05;;;;;;;3.50;2.05;;;;;;;-3.68;96.19;100037.63;10512704;28;20495;-79
2022/12/30 00:59:50;;;;;;;2.85;1.95;;;;;;;-3.70;96.34;100015.56;10505113;28;20041;-79
2022/12/30 01:04:53;;;;;;;3.17;1.90;;;;;;;-3.65;96.44;100017.63;10503111;28;20040;-78
2022/12/30 01:09:57;;;;;;;3.65;2.45;;;;;;;-3.62;96.55;100003.03;10516741;28;20045;-78
2022/12/30 01:15:25;;;;;;;3.13;1.83;;;;;;;-3.53;96.77;99991.88;10514728;28;20032;-79
2022/12/30 01:20:27;;;;;;;3.17;2.45;;;;;;;-3.57;96.89;99996.00;10522215;28;20044;-79
2022/12/30 01:25:30;;;;;;;3.28;1.77;;;;;;;-3.56;96.82;99986.94;10502163;28;20041;-78
2022/12/30 01:30:32;;;;;;;4.95;2.65;;;;;;;-3.55;96.98;99993.94;10507523;28;20036;-78
2022/12/30 01:35:34;;;;;;;3.50;2.30;;;;;;;-3.54;97.00;99974.13;10494184;28;20136;-78
2022/12/30 01:40:40;;;;;;;4.55;1.70;;;;;;;-3.56;97.23;99962.78;10522556;28;20048;-78
2022/12/30 01:45:45;;;;;;;2.90;1.75;;;;;;;-3.55;97.13;99960.94;10506070;28;20053;-77
2022/12/30 01:51:01;;;;;;;3.70;1.60;;;;;;;-3.50;97.14;99961.13;10513882;28;20051;-78
2022/12/30 01:56:26;;;;;;;2.67;1.88;;;;;;;-3.47;97.52;99964.25;10511668;28;20033;-79
2022/12/30 02:01:30;;;;;;;2.88;1.65;;;;;;;-3.44;97.57;99961.16;10501642;28;20502;-78
2022/12/30 02:06:58;;;;;;;3.00;2.38;;;;;;;-3.34;97.58;99963.41;10527505;28;20040;-78
2022/12/30 02:12:03;;;;;;;3.58;2.13;;;;;;;-3.30;97.83;99956.59;10519669;28;20040;-78
2022/12/30 02:17:19;;;;;;;4.20;2.10;;;;;;;-3.29;97.74;99941.34;10530778;28;20036;-79
2022/12/30 02:22:46;;;;;;;2.33;1.73;;;;;;;-3.29;97.94;99935.97;10495544;28;20032;-78
2022/12/30 02:28:15;;;;;;;3.55;2.13;;;;;;;-3.27;97.81;99940.09;10521370;28;20036;-79
2022/12/30 02:33:29;;;;;;;2.42;2.00;;;;;;;-3.20;98.20;99934.72;10512405;28;20384;-77
2022/12/30 02:38:44;;;;;;;2.08;1.40;;;;;;;-3.12;98.13;99931.81;10501033;28;20392;-78
2022/12/30 02:49:17;;;;;;;2.83;2.17;;;;;;;-3.17;98.47;99915.50;10489460;28;20048;-78
2022/12/30 02:54:19;;;;;;;2.88;1.98;;;;;;;-3.20;98.46;99914.06;10492426;28;20036;-79
2022/12/30 03:05:02;;;;;;;2.53;2.10;;;;;;;-3.13;98.38;99898.75;10500563;28;20066;-78
2022/12/30 03:15:46;;;;;;;4.00;2.10;;;;;;;-3.10;98.50;99902.91;10497249;28;20045;-78
2022/12/30 03:20:50;;;;;;;2.95;2.10;;;;;;;-3.07;98.63;99895.25;10491435;28;20048;-78
2022/12/30 03:31:19;;;;;;;2.47;2.25;;;;;;;-3.00;98.67;99899.78;10488529;28;19927;-79
2022/12/30 03:36:25;;;;;;;2.65;2.10;;;;;;;-2.99;98.95;99888.81;10503004;28;20044;-80
2022/12/30 03:41:28;;;;;;;3.13;2.08;;;;;;;-2.93;98.81;99874.56;10439048;28;20041;-79
2022/12/30 03:46:32;;;;;;;3.90;2.50;;;;;;;-2.97;99.03;99870.66;10445140;28;20044;-79
2022/12/30 03:51:34;;;;;;;1.42;1.33;;;;;;;-2.95;98.88;99868.59;10448500;28;20049;-79
2022/12/30 03:56:36;;;;;;;2.97;2.20;;;;;;;-2.96;99.15;99858.88;10456233;28;20507;-79
2022/12/30 04:01:39;;;;;;;2.22;1.75;;;;;;;-2.96;99.00;99853.50;10486910;28;20431;-80
2022/12/30 04:06:42;;;;;;;3.92;2.28;;;;;;;-2.91;99.07;99845.66;10483350;28;20036;-78
2022/12/30 04:11:45;;;;;;;3.30;2.58;;;;;;;-2.90;99.24;99847.31;10454659;28;20048;-80
2022/12/30 04:16:47;;;;;;;2.80;1.85;;;;;;;-2.84;99.14;99841.06;10469657;28;20415;-82
2022/12/30 04:21:54;;;;;;;2.13;1.95;;;;;;;-2.82;99.40;99833.63;10484220;28;20045;-82
2022/12/30 04:26:56;;;;;;;1.90;1.80;;;;;;;-2.72;99.48;99832.34;10482069;28;20033;-81
2022/12/30 04:32:02;;;;;;;2.78;1.90;;;;;;;-2.63;99.63;99837.25;10478180;28;20067;-82
2022/12/30 04:37:04;;;;;;;2.90;2.17;;;;;;;-2.61;99.66;99834.34;10492471;28;20037;-79
2022/12/30 04:42:07;;;;;;;2.28;2.08;;;;;;;-2.59;99.33;99826.91;10520496;28;20044;-81
2022/12/30 04:47:09;;;;;;;3.45;2.55;;;;;;;-2.64;99.48;99824.84;10520088;28;20322;-80
2022/12/30 04:52:15;;;;;;;3.38;2.20;;;;;;;-2.58;99.20;99817.81;10519071;28;20053;-80
2022/12/30 04:57:17;;;;;;;2.55;2.03;;;;;;;-2.53;99.62;99805.38;10489278;28;20135;-80
2022/12/30 05:02:19;;;;;;;3.92;2.40;;;;;;;-2.55;99.48;99806.66;10491994;28;20045;-79
2022/12/30 05:07:26;;;;;;;3.67;2.58;;;;;;;-2.56;99.55;99802.31;10532299;28;20051;-79
2022/12/30 05:12:28;;;;;;;2.45;2.25;;;;;;;-2.56;99.37;99799.63;10532395;28;20044;-80
2022/12/30 05:17:35;;;;;;;4.22;2.67;;;;;;;-2.53;99.75;99786.59;10512605;28;20475;-80
2022/12/30 05:22:37;;;;;;;2.25;2.05;;;;;;;-2.50;99.85;99788.00;10499883;28;20044;-80
2022/12/30 05:27:39;;;;;;;4.53;3.17;;;;;;;-2.50;99.19;99786.16;10510278;28;20052;-81
2022/12/30 05:32:41;;;;;;;3.40;2.90;;;;;;;-2.49;99.77;99784.28;10520971;28;20044;-80
2022/12/30 05:37:44;;;;;;;5.57;3.05;;;;;;;-2.47;100.00;99783.00;10517586;28;20234;-79
2022/12/30 05:42:46;;;;;;;4.15;2.67;;;;;;;-2.44;100.00;99792.50;10515914;28;20045;-79
2022/12/30 05:47:49;;;;;;;3.63;2.85;;;;;;;-2.36;99.75;99784.19;10515794;28;20052;-78
2022/12/30 05:52:51;;;;;;;3.67;2.78;;;;;;;-2.33;99.93;99781.06;10521289;28;20036;-79
2022/12/30 05:57:53;;;;;;;4.03;2.10;;;;;;;-2.28;100.00;99773.16;10505858;28;20065;-79
2022/12/30 06:02:56;;;;;;;3.53;2.67;;;;;;;-2.27;99.95;99766.75;10515057;28;20049;-80
2022/12/30 06:07:58;;;;;;;3.30;2.50;;;;;;;-2.25;100.00;99774.63;10521818;28;20052;-81
2022/12/30 06:13:00;;;;;;;3.88;2.78;;;;;;;-2.24;100.00;99769.03;10503285;28;20044;-81
2022/12/30 06:18:03;;;;;;;3.55;2.15;;;;;;;-2.17;100.00;99772.47;10527338;28;20415;-80
2022/12/30 06:23:05;;;;;;;3.80;2.60;;;;;;;-2.14;100.00;99766.66;10529833;28;20476;-80
2022/12/30 06:28:07;;;;;;;5.72;2.63;;;;;;;-2.08;100.00;99775.72;10501976;28;20166;-79
2022/12/30 06:33:10;;;;;;;4.72;3.30;;;;;;;-2.02;100.00;99776.69;10500755;28;20036;-81
2022/12/30 06:38:12;;;;;;;3.90;2.97;;;;;;;-2.01;100.00;99767.59;10498686;28;20419;-80
2022/12/30 06:43:14;;;;;;;5.72;3.85;;;;;;;-1.98;100.00;99770.66;10527274;28;20043;-80
2022/12/30 06:48:16;;;;;;;5.05;3.55;;;;;;;-1.94;100.00;99771.03;10515188;28;20032;-81
2022/12/30 06:53:19;;;;;;;4.75;3.30;;;;;;;-1.91;100.00;99765.19;10525936;28;20051;-80
2022/12/30 06:58:21;;;;;;;6.88;4.22;;;;;;;-1.86;100.00;99779.63;10527570;28;20041;-80
2022/12/30 07:03:23;;;;;;;7.38;3.97;;;;;;;-1.84;100.00;99772.16;10525344;28;20045;-81
2022/12/30 07:08:26;;;;;;;6.28;3.85;;;;;;;-1.81;100.00;99768.22;10504317;28;20052;-81
2022/12/30 07:13:28;;;;;;;6.53;3.78;;;;;;;-1.79;100.00;99770.69;10519666;28;20048;-80
2022/12/30 07:18:30;;;;;;;5.20;3.72;;;;;;;-1.76;100.00;99770.22;10526748;28;20040;-81
2022/12/30 07:23:32;;;;;;;7.05;3.15;;;;;;;-1.72;100.00;99764.22;10509783;28;20044;-80
2022/12/30 07:28:35;;;;;;;6.47;3.45;;;;;;;-1.71;100.00;99752.41;10497025;28;20052;-80
2022/12/30 07:33:37;;;;;;;6.15;2.75;;;;;;;-1.67;100.00;99771.59;10507677;28;20075;-80
2022/12/30 07:38:43;;;;;;;7.55;4.47;;;;;;;-1.66;100.00;99757.09;10518183;28;20052;-81
2022/12/30 07:43:45;;;;;;;8.68;3.95;;;;;;;-1.63;100.00;99781.69;10504112;28;20040;-81
2022/12/30 07:48:48;;;;;;;8.18;4.25;;;;;;;-1.63;100.00;99768.22;10510525;28;20040;-79
2022/12/30 07:53:51;;;;;;;7.18;4.32;;;;;;;-1.62;100.00;99769.06;10506255;28;20040;-81
2022/12/30 07:59:18;;;;;;;6.88;4.18;;;;;;;-1.57;100.00;99763.81;10515855;28;20522;-80
2022/12/30 08:04:21;;;;;;;6.85;4.47;;;;;;;-1.54;100.00;99742.69;10511676;28;20044;-80
2022/12/30 08:09:23;;;;;;;7.80;4.10;;;;;;;-1.52;100.00;99745.97;10516630;28;20055;-80
2022/12/30 08:14:26;;;;;;;6.00;3.38;;;;;;;-1.48;100.00;99743.66;10512164;28;20037;-81
2022/12/30 08:19:33;;;;;;;6.10;3.83;;;;;;;-1.41;100.00;99760.53;10490623;28;20036;-81
2022/12/30 08:24:35;;;;;;;5.70;3.10;;;;;;;-1.37;100.00;99760.94;10504729;28;20043;-80
2022/12/30 08:29:37;;;;;;;5.43;2.97;;;;;;;-1.33;100.00;99745.97;10498463;28;20048;-78
2022/12/30 08:34:40;;;;;;;4.82;3.00;;;;;;;-1.29;100.00;99747.16;10506382;28;20036;-78
2022/12/30 08:39:42;;;;;;;4.97;3.08;;;;;;;-1.22;100.00;99731.72;10513408;28;20446;-79
2022/12/30 08:44:44;;;;;;;6.32;2.85;;;;;;;-1.19;100.00;99747.47;10515933;28;20032;-77
2022/12/30 08:50:11;;;;;;;5.05;2.83;;;;;;;-1.11;100.00;99749.81;10502372;28;20054;-79
2022/12/30 08:55:14;;;;;;;2.42;2.10;;;;;;;-1.06;100.00;99752.66;10507628;28;20037;-79
2022/12/30 09:00:16;;;;;;;6.10;2.75;;;;;;;-0.98;100.00;99738.88;10535140;28;20538;-81
2022/12/30 09:05:18;;;;;;;5.40;3.13;;;;;;;-0.92;100.00;99747.91;10522765;28;20043;-80
2022/12/30 09:10:21;;;;;;;5.88;2.90;;;;;;;-0.94;100.00;99741.94;10480354;28;20049;-79
2022/12/30 09:15:23;;;;;;;4.22;2.50;;;;;;;-0.91;100.00;99719.94;10518266;28;20044;-80
2022/12/30 09:20:25;;;;;;;5.05;2.90;;;;;;;-0.92;100.00;99715.59;10491040;28;20049;-79
2022/12/30 09:25:28;;;;;;;5.43;2.33;;;;;;;-0.92;100.00;99719.13;10517831;28;20041;-79
2022/12/30 09:30:30;;;;;;;5.63;3.17;;;;;;;-0.86;100.00;99708.50;10501383;28;20052;-79
2022/12/30 09:35:32;;;;;;;3.40;2.45;;;;;;;-0.83;100.00;99708.84;10516501;28;20046;-79
2022/12/30 09:41:04;;;;;;;1.33;1.23;;;;;;;-0.80;100.00;99713.78;10511741;28;20503;-79
2022/12/30 09:46:21;;;;;;;4.35;2.53;;;;;;;-0.81;100.00;99711.31;10514439;28;20051;-81
2022/12/30 09:51:31;;;;;;;3.17;2.20;;;;;;;-0.77;100.00;99697.16;10521504;28;20045;-81
2022/12/30 09:56:34;;;;;;;5.78;1.67;;;;;;;-0.74;100.00;99685.91;10506117;28;20072;-82
2022/12/30 10:01:44;;;;;;;1.40;1.27;;;;;;;-0.68;100.00;99686.88;10490100;28;20037;-80
2022/12/30 10:07:05;;;;;;;3.08;2.47;;;;;;;-0.67;100.00;99686.66;10506126;28;20427;-82
2022/12/30 10:12:20;;;;;;;3.00;2.28;;;;;;;-0.62;100.00;99677.88;10530885;28;20048;-78
2022/12/30 10:17:44;;;;;;;3.03;1.25;;;;;;;-0.55;100.00;99681.25;10526769;28;20036;-78
2022/12/30 10:23:05;;;;;;;2.13;1.33;;;;;;;-0.57;100.00;99675.28;10529322;28;20072;-80
2022/12/30 10:28:08;;;;;;;2.78;2.30;;;;;;;-0.55;100.00;99673.19;10530991;28;20032;-80
2022/12/30 10:33:19;;;;;;;2.63;2.03;;;;;;;-0.51;100.00;99674.38;10511633;28;20048;-79
2022/12/30 10:38:27;;;;;;;3.10;1.75;;;;;;;-0.44;100.00;99682.34;10531293;28;20044;-80
2022/12/30 10:43:50;;;;;;;6.38;2.30;;;;;;;-0.44;100.00;99675.06;10494990;28;20036;-82
2022/12/30 10:49:05;;;;;;;3.83;1.98;;;;;;;-0.27;100.00;99677.06;10520905;28;20514;-80
2022/12/30 10:54:08;;;;;;;6.07;3.13;;;;;;;-0.15;100.00;99669.81;10530106;28;20130;-81
2022/12/30 10:59:13;;;;;;;3.08;2.28;;;;;;;-0.15;100.00;99672.53;10511948;28;20048;-81
2022/12/30 11:04:34;;;;;;;5.55;2.65;;;;;;;-0.09;100.00;99674.25;10490159;28;20047;-81
2022/12/30 11:09:36;;;;;;;2.75;2.22;;;;;;;0.04;100.00;99675.91;10518094;28;20487;-81
2022/12/30 11:14:45;;;;;;;3.40;2.15;;;;;;;0.11;100.00;99682.81;10509041;28;20040;-80
2022/12/30 11:20:19;;;;;;;3.40;2.33;;;;;;;0.16;100.00;99677.50;10486548;28;20053;-79
2022/12/30 11:25:27;;;;;;;4.68;2.45;;;;;;;0.27;100.00;99681.25;10473488;28;20128;-81
2022/12/30 11:30:36;;;;;;;4.78;2.83;;;;;;;0.29;100.00;99676.44;10487524;28;20048;-83
2022/12/30 11:35:42;;;;;;;5.43;2.80;;;;;;;0.31;100.00;99671.63;10469523;28;20060;-81
2022/12/30 11:40:45;;;;;;;3.95;1.80;;;;;;;0.35;100.00;99674.66;10471044;28;20033;-81
2022/12/30 11:45:56;;;;;;;3.63;2.53;;;;;;;0.42;100.00;99678.06;10499525;28;20056;-79
2022/12/30 11:50:59;;;;;;;6.63;2.20;;;;;;;0.51;100.00;99676.63;10500321;28;20140;-78
2022/12/30 11:56:01;;;;;;;3.58;1.80;;;;;;;0.64;100.00;99684.44;10508692;28;20049;-80
2022/12/30 12:01:11;;;;;;;3.50;2.30;;;;;;;0.60;100.00;99684.13;10463140;28;20521;-79
2022/12/30 12:06:13;;;;;;;4.85;3.20;;;;;;;0.57;100.00;99681.09;10491554;28;20578;-78
2022/12/30 12:11:19;;;;;;;2.72;1.88;;;;;;;0.58;100.00;99685.41;10522123;28;20068;-77
2022/12/30 12:16:53;;;;;;;3.08;2.20;;;;;;;0.78;100.00;99683.13;10495857;28;20033;-77
2022/12/30 12:21:59;;;;;;;3.90;2.25;;;;;;;0.85;100.00;99678.38;10519421;28;20040;-77
2022/12/30 12:27:09;;;;;;;5.15;2.55;;;;;;;0.93;100.00;99679.91;10495951;28;20570;-79
2022/12/30 12:32:43;;;;;;;5.45;2.53;;;;;;;1.03;100.00;99690.06;10502864;28;20044;-81
2022/12/30 12:38:08;;;;;;;4.65;2.50;;;;;;;1.07;100.00;99691.22;10523620;28;20507;-78
2022/12/30 12:43:13;;;;;;;3.97;2.70;;;;;;;1.21;100.00;99697.94;10522118;28;20043;-78
2022/12/30 12:48:23;;;;;;;3.42;2.25;;;;;;;1.28;100.00;99692.41;10516823;28;20399;-77
2022/12/30 12:53:38;;;;;;;4.75;2.42;;;;;;;1.23;100.00;99695.03;10522649;28;20040;-77
2022/12/30 12:58:42;;;;;;;3.08;1.92;;;;;;;1.32;100.00;99698.97;10511126;28;20060;-84
2022/12/30 13:04:11;;;;;;;4.38;1.90;;;;;;;1.33;100.00;99697.91;10505282;28;20036;-83
2022/12/30 13:09:32;;;;;;;3.88;1.90;;;;;;;1.44;100.00;99710.53;10486048;28;20052;-80
2022/12/30 13:14:50;;;;;;;4.22;2.20;;;;;;;1.39;100.00;99710.41;10515093;28;20049;-81
2022/12/30 13:20:29;;;;;;;3.50;1.98;;;;;;;1.47;100.00;99713.56;10507048;28;20044;-81
2022/12/30 13:25:34;;;;;;;4.22;2.42;;;;;;;1.56;100.00;99715.84;10479260;28;20056;-80
2022/12/30 13:30:48;;;;;;;2.25;1.75;;;;;;;1.51;100.00;99708.47;10521826;28;20546;-80
2022/12/30 13:36:07;;;;;;;2.50;2.17;;;;;;;1.59;100.00;99709.97;10511458;28;20365;-80
2022/12/30 13:41:22;;;;;;;3.03;2.50;;;;;;;1.56;100.00;99715.84;10533527;28;20059;-81
2022/12/30 13:46:27;;;;;;;3.78;2.10;;;;;;;1.60;100.00;99715.13;10519173;28;20124;-80
2022/12/30 13:51:30;;;;;;;3.58;2.33;;;;;;;1.53;100.00;99717.16;10495342;28;20530;-81
2022/12/30 13:56:36;;;;;;;4.13;2.20;;;;;;;1.52;100.00;99723.63;10512658;28;20051;-81
2022/12/30 14:01:40;;;;;;;2.53;1.90;;;;;;;1.50;100.00;99729.28;10514004;28;20033;-81
2022/12/30 14:06:50;;;;;;;2.70;1.50;;;;;;;1.50;100.00;99723.88;10507785;28;20045;-83
2022/12/30 14:12:06;;;;;;;3.20;2.10;;;;;;;1.47;100.00;99721.66;10530846;28;20375;-81
2022/12/30 14:17:19;;;;;;;5.80;2.55;;;;;;;1.48;100.00;99722.50;10533535;28;20044;-82
2022/12/30 14:22:39;;;;;;;3.05;2.22;;;;;;;1.50;100.00;99723.06;10529019;28;20503;-81
2022/12/30 14:27:47;;;;;;;4.88;2.10;;;;;;;1.54;100.00;99726.91;10528408;28;20415;-82
2022/12/30 14:32:57;;;;;;;5.07;2.20;;;;;;;1.56;100.00;99738.28;10526973;28;20041;-82
2022/12/30 14:38:24;;;;;;;7.15;2.33;;;;;;;1.60;100.00;99738.66;10509686;28;20056;-81
2022/12/30 14:43:27;;;;;;;4.28;2.03;;;;;;;1.69;100.00;99739.88;10491795;28;20048;-81
2022/12/30 14:49:21;;;;;;;3.78;1.75;;;;;;;1.70;100.00;99744.22;10510224;28;20048;-78
2022/12/30 14:54:38;;;;;;;3.60;2.40;;;;;;;1.63;100.00;99760.59;10467869;28;20055;-80
2022/12/30 14:59:52;;;;;;;7.07;2.63;;;;;;;1.68;100.00;99755.28;10496529;28;20048;-80
2022/12/30 15:05:07;;;;;;;5.10;2.40;;;;;;;1.73;100.00;99754.53;10505119;28;20048;-79
2022/12/30 15:10:33;;;;;;;5.18;2.40;;;;;;;1.77;100.00;99763.81;10516304;28;20037;-79
2022/12/30 15:15:37;;;;;;;7.15;2.97;;;;;;;1.85;100.00;99781.53;10505562;28;20470;-77
2022/12/30 15:20:39;;;;;;;5.00;3.10;;;;;;;1.90;100.00;99782.41;10505344;28;20134;-77
2022/12/30 15:25:41;;;;;;;3.83;2.40;;;;;;;1.87;100.00;99787.50;10524409;28;20036;-76
2022/12/30 15:30:50;;;;;;;5.90;2.78;;;;;;;1.87;100.00;99793.72;10523751;28;20068;-77
2022/12/30 15:35:52;;;;;;;6.03;3.35;;;;;;;1.90;100.00;99790.53;10508873;28;20055;-75
2022/12/30 15:41:01;;;;;;;4.63;2.92;;;;;;;2.00;100.00;99801.53;10509646;28;20045;-77
2022/12/30 15:46:05;;;;;;;4.80;2.55;;;;;;;2.04;100.00;99813.50;10507576;28;20029;-77
2022/12/30 15:51:16;;;;;;;5.57;3.72;;;;;;;1.97;100.00;99818.25;10517350;28;20507;-81
2022/12/30 15:56:19;;;;;;;3.90;2.40;;;;;;;2.00;100.00;99819.66;10512257;28;20165;-82
2022/12/30 16:01:35;;;;;;;4.60;3.10;;;;;;;2.09;100.00;99821.72;10500896;28;20045;-81
2022/12/30 16:06:41;;;;;;;5.30;3.08;;;;;;;2.08;100.00;99838.19;10505005;28;20044;-80
2022/12/30 16:11:51;;;;;;;8.63;3.05;;;;;;;2.03;100.00;99830.81;10508323;28;20056;-81
2022/12/30 16:16:54;;;;;;;6.13;2.85;;;;;;;2.07;100.00;99826.53;10517111;28;20048;-79
2022/12/30 16:21:59;;;;;;;5.15;2.65;;;;;;;2.11;100.00;99843.94;10495809;28;20051;-79
2022/12/30 16:27:10;;;;;;;5.50;3.47;;;;;;;2.25;100.00;99839.00;10508239;28;20051;-76
2022/12/30 16:32:14;;;;;;;8.18;3.17;;;;;;;2.27;100.00;99841.50;10490003;28;20051;-79
2022/12/30 16:37:37;;;;;;;5.55;3.58;;;;;;;2.33;100.00;99848.63;10494010;28;20049;-78
2022/12/30 16:42:39;;;;;;;6.68;3.63;;;;;;;2.44;100.00;99860.44;10477041;28;20527;-80
2022/12/30 16:47:42;;;;;;;6.43;3.22;;;;;;;2.43;100.00;99856.91;10481198;28;20040;-80
2022/12/30 16:52:45;;;;;;;5.32;3.13;;;;;;;2.44;100.00;99858.56;10500951;28;20049;-78
2022/12/30 16:57:47;;;;;;;8.73;3.40;;;;;;;2.40;100.00;99862.78;10506637;28;20049;-79
2022/12/30 17:02:50;;;;;;;3.97;2.63;;;;;;;2.40;100.00;99868.22;10497801;28;20041;-79
2022/12/30 17:07:58;;;;;;;6.60;3.03;;;;;;;2.46;100.00;99871.84;10504247;28;20040;-81
2022/12/30 17:13:02;;;;;;;4.38;2.80;;;;;;;2.53;100.00;99881.44;10531639;28;20503;-83
2022/12/30 17:18:04;;;;;;;2.38;2.00;;;;;;;2.46;100.00;99883.50;10543771;28;20415;-78
2022/12/30 17:23:08;;;;;;;6.88;3.33;;;;;;;2.54;100.00;99885.78;10531360;28;20040;-81
2022/12/30 17:28:11;;;;;;;4.38;2.50;;;;;;;2.56;100.00;99890.94;10522045;28;20039;-79
2022/12/30 17:33:13;;;;;;;5.35;2.50;;;;;;;2.62;100.00;99892.69;10519792;28;20044;-79
2022/12/30 17:38:15;;;;;;;6.32;3.45;;;;;;;2.66;100.00;99894.63;10532664;28;20395;-81
2022/12/30 17:43:18;;;;;;;10.68;4.47;;;;;;;2.83;100.00;99902.75;10528482;28;20052;-78
2022/12/30 17:48:21;;;;;;;7.70;3.58;;;;;;;2.76;100.00;99903.97;10515064;28;20048;-78
2022/12/30 17:53:24;;;;;;;7.13;2.60;;;;;;;2.76;100.00;99903.97;10513220;28;20427;-77
2022/12/30 17:58:26;;;;;;;9.07;3.78;;;;;;;2.79;100.00;99906.22;10531108;28;20040;-78
2022/12/30 18:03:28;;;;;;;7.80;3.38;;;;;;;2.99;100.00;99901.91;10527694;28;20044;-75
2022/12/30 18:08:31;;;;;;;7.32;3.47;;;;;;;2.97;100.00;99916.78;10508380;28;20048;-76
2022/12/30 18:13:35;;;;;;;5.85;3.78;;;;;;;2.86;100.00;99921.22;10513805;28;20499;-77
2022/12/30 18:18:38;;;;;;;4.95;3.42;;;;;;;2.77;100.00;99921.88;10482697;28;20044;-76
2022/12/30 18:23:41;;;;;;;8.30;3.45;;;;;;;2.79;100.00;99926.00;10515974;28;20053;-77
2022/12/30 18:28:44;;;;;;;6.50;2.85;;;;;;;2.66;100.00;99929.84;10511703;28;20447;-76
2022/12/30 18:33:46;;;;;;;7.22;3.40;;;;;;;2.66;100.00;99932.56;10508444;28;20510;-76
2022/12/30 18:38:49;;;;;;;6.18;3.53;;;;;;;2.78;100.00;99942.47;10505377;28;20080;-76
2022/12/30 18:43:51;;;;;;;5.13;2.75;;;;;;;2.76;100.00;99948.13;10503043;28;20372;-77
2022/12/30 18:49:06;;;;;;;4.00;2.67;;;;;;;2.85;100.00;99948.56;10518665;28;20044;-77
2022/12/30 18:54:14;;;;;;;8.00;3.15;;;;;;;2.85;100.00;99962.09;10525333;28;20045;-75
2022/12/30 18:59:17;;;;;;;6.17;3.37;;;;;;;2.78;100.00;99962.28;10511457;28;20488;-76
2022/12/30 19:04:19;;;;;;;8.95;3.97;;;;;;;2.80;100.00;99970.16;10507904;28;20044;-76
2022/12/30 19:09:22;;;;;;;8.38;4.05;;;;;;;2.89;100.00;99971.38;10517163;28;20037;-76
2022/12/30 19:14:25;;;;;;;5.50;2.78;;;;;;;2.91;100.00;99977.38;10492236;28;20442;-75
2022/12/30 19:19:27;;;;;;;7.45;3.30;;;;;;;2.83;99.88;99986.75;10482265;28;20040;-76
2022/12/30 19:24:29;;;;;;;5.72;2.88;;;;;;;2.78;100.00;99999.38;10526961;28;20147;-77
2022/12/30 19:29:32;;;;;;;4.28;2.53;;;;;;;2.66;100.00;100002.16;10503750;28;20094;-75
2022/12/30 19:34:34;;;;;;;5.50;2.95;;;;;;;2.80;99.83;100027.06;10497947;28;20055;-75
2022/12/30 19:39:37;;;;;;;8.30;2.83;;;;;;;2.90;98.99;100021.78;10507172;28;20064;-77
2022/12/30 19:44:39;;;;;;;6.15;3.35;;;;;;;2.81;99.55;100031.41;10527467;28;20051;-75
2022/12/30 19:49:41;;;;;;;6.65;2.70;;;;;;;2.78;98.96;100037.28;10526178;28;20483;-76
2022/12/30 19:54:43;;;;;;;4.45;2.33;;;;;;;2.72;99.52;100039.94;10472879;28;20044;-77
2022/12/30 19:59:46;;;;;;;9.43;4.10;;;;;;;2.79;99.02;100038.97;10518078;28;20040;-76
2022/12/30 20:04:48;;;;;;;10.77;4.65;;;;;;;2.85;99.16;100046.91;10502248;28;20052;-76
2022/12/30 20:09:50;;;;;;;8.95;4.25;;;;;;;2.78;98.63;100048.97;10495759;28;20044;-78
2022/12/30 20:14:53;;;;;;;7.93;4.15;;;;;;;2.81;98.52;100055.78;10521606;28;20059;-78
2022/12/30 20:19:55;;;;;;;12.77;4.82;;;;;;;2.73;98.85;100060.53;10507566;28;20044;-76
2022/12/30 20:24:57;;;;;;;10.60;4.30;;;;;;;2.81;98.44;100059.31;10512729;28;20475;-76
2022/12/30 20:30:00;;;;;;;13.93;5.75;;;;;;;2.85;99.06;100059.66;10497919;28;20040;-76
2022/12/30 20:35:02;;;;;;;11.00;4.60;;;;;;;2.85;99.41;100062.34;10509797;28;20384;-77
2022/12/30 20:40:05;;;;;;;9.00;4.57;;;;;;;2.82;98.80;100068.28;10493681;28;20048;-78
2022/12/30 20:45:07;;;;;;;8.45;4.60;;;;;;;2.92;98.67;100071.97;10512287;28;20052;-76
2022/12/30 20:50:10;;;;;;;15.75;5.25;;;;;;;2.92;99.21;100082.81;10496305;28;20036;-78
2022/12/30 20:55:12;;;;;;;11.48;4.25;;;;;;;2.99;99.50;100078.06;10518322;28;20052;-76
2022/12/30 21:00:14;;;;;;;9.32;4.43;;;;;;;3.10;98.87;100084.47;10517316;28;20053;-77
2022/12/30 21:05:17;;;;;;;10.82;4.30;;;;;;;2.93;98.71;100091.75;10516750;28;20048;-80
2022/12/30 21:10:19;;;;;;;9.93;4.30;;;;;;;2.98;98.56;100087.25;10521044;28;20052;-77
2022/12/30 21:15:26;;;;;;;11.10;4.60;;;;;;;3.01;97.97;100091.38;10500500;28;20040;-78
2022/12/30 21:20:28;;;;;;;6.55;3.45;;;;;;;2.89;98.75;100096.03;10511647;28;20135;-78
2022/12/30 21:25:31;;;;;;;9.27;4.43;;;;;;;2.94;98.59;100096.94;10519884;28;20048;-77
2022/12/30 21:30:33;;;;;;;12.82;4.43;;;;;;;2.95;98.50;100097.75;10516548;28;20046;-77
2022/12/30 21:35:38;;;;;;;10.18;3.90;;;;;;;2.90;98.17;100100.38;10501247;28;20425;-76
2022/12/30 22:07:48;;;;;;;8.25;3.95;;;;;;;3.10;98.70;100127.84;10506187;28;20036;-86
2022/12/30 22:12:50;;;;;;;7.40;3.78;;;;;;;3.19;98.04;100122.84;10502377;28;20048;-89
2022/12/30 22:17:53;;;;;;;7.20;2.85;;;;;;;3.26;97.60;100137.88;10519725;28;20043;-87
2022/12/30 22:22:58;;;;;;;9.23;3.45;;;;;;;3.22;97.41;100135.91;10537543;28;20048;-87
2022/12/30 22:28:01;;;;;;;10.25;4.00;;;;;;;3.06;97.15;100148.38;10501694;28;20530;-87
2022/12/30 22:33:03;;;;;;;7.32;3.45;;;;;;;3.12;97.13;100147.38;10534511;28;20059;-84
2022/12/30 22:38:06;;;;;;;8.43;3.22;;;;;;;3.09;96.49;100158.72;10524341;28;20056;-83
2022/12/30 22:43:10;;;;;;;10.13;3.63;;;;;;;3.12;96.95;100160.94;10528283;28;20052;-89
2022/12/30 22:48:12;;;;;;;7.43;3.50;;;;;;;3.02;96.75;100175.16;10476804;28;20052;-83
2022/12/30 22:53:15;;;;;;;8.77;3.53;;;;;;;3.01;96.60;100167.25;10510014;28;20066;-85
2022/12/30 22:58:17;;;;;;;5.28;3.58;;;;;;;2.88;97.11;100183.81;10510571;28;20526;-86
2022/12/30 23:03:20;;;;;;;6.63;3.17;;;;;;;2.77;97.25;100176.53;10491021;28;20513;-86
2022/12/30 23:08:23;;;;;;;5.15;2.95;;;;;;;2.87;97.01;100187.56;10526836;28;20052;-85
2022/12/30 23:18:46;;;;;;;5.85;2.40;;;;;;;2.97;96.98;100201.34;10537086;28;20032;-84
2022/12/30 23:29:12;;;;;;;4.70;2.33;;;;;;;2.94;97.06;100196.38;10498286;28;20044;-83
2022/12/30 23:34:14;;;;;;;2.78;2.00;;;;;;;2.95;96.71;100198.03;10511326;28;20056;-85
2022/12/30 23:39:17;;;;;;;5.50;3.35;;;;;;;2.98;96.76;100211.13;10491721;28;20052;-84
2022/12/30 23:44:19;;;;;;;5.03;2.70;;;;;;;3.09;96.27;100217.53;10499001;28;20037;-86
2022/12/30 23:49:21;;;;;;;4.97;2.78;;;;;;;3.05;96.88;100209.06;10528731;28;20522;-85
2022/12/30 23:54:23;;;;;;;4.15;2.70;;;;;;;3.06;96.40;100215.31;10522313;28;20052;-85
2022/12/30 23:59:27;;;;;;;6.95;3.38;;;;;;;3.08;95.54;100235.69;10489948;28;20067;-85
